Time;durP1;ratioP1;P1;durP2;ratioP2;P2;SDS_P1;SDS_P2;PMS_P1;PMS_P2;Temp;Humidity;BMP_temperature;BMP_pressure;BME280_temperature;BME280_humidity;BME280_pressure;Samples;Min_cycle;Max_cycle;Signal;HPM_P1;HPM_P2
2022/12/20 00:00:13;;;;;;;6.22;4.47;;;9.10;99.90;;;;;;5043291;28;20513;-66
2022/12/20 00:02:39;;;;;;;7.20;5.13;;;9.10;99.90;;;;;;5048510;28;21343;-66
2022/12/20 00:05:05;;;;;;;6.88;4.68;;;9.10;99.90;;;;;;5033709;28;20400;-66
2022/12/20 00:07:31;;;;;;;7.07;4.60;;;9.10;99.90;;;;;;5046668;28;20040;-67
2022/12/20 00:09:56;;;;;;;8.00;4.65;;;9.10;99.90;;;;;;5025231;28;20051;-66
2022/12/20 00:12:22;;;;;;;8.95;4.28;;;9.10;99.90;;;;;;5037199;28;20037;-66
2022/12/20 00:14:48;;;;;;;6.38;4.53;;;9.00;99.90;;;;;;5044813;28;20041;-66
2022/12/20 00:17:13;;;;;;;6.45;4.50;;;9.00;99.90;;;;;;5033891;28;20479;-66
2022/12/20 00:19:39;;;;;;;9.38;4.72;;;9.00;99.90;;;;;;5010631;28;20060;-66
2022/12/20 00:22:04;;;;;;;6.85;5.00;;;9.00;99.90;;;;;;5030041;28;20037;-66
2022/12/20 00:24:31;;;;;;;9.85;5.10;;;9.00;99.90;;;;;;5031352;28;20034;-66
2022/12/20 00:26:57;;;;;;;7.90;5.20;;;9.00;99.90;;;;;;5032995;28;20045;-66
2022/12/20 00:29:23;;;;;;;9.30;4.47;;;9.00;99.90;;;;;;5029368;28;20045;-66
2022/12/20 00:31:48;;;;;;;7.25;5.05;;;9.00;99.90;;;;;;5032200;28;20030;-66
2022/12/20 00:34:14;;;;;;;7.80;4.22;;;9.10;99.90;;;;;;5034565;28;20048;-66
2022/12/20 00:36:39;;;;;;;6.10;4.13;;;9.10;99.90;;;;;;5031603;28;20070;-66
2022/12/20 00:39:05;;;;;;;7.53;4.43;;;9.10;99.90;;;;;;5011898;28;20392;-66
2022/12/20 00:41:33;;;;;;;5.15;4.13;;;9.10;99.90;;;;;;5032249;28;20503;-66
2022/12/20 00:43:59;;;;;;;7.20;4.45;;;9.20;99.90;;;;;;5031413;28;20038;-66
2022/12/20 00:46:25;;;;;;;8.55;5.05;;;9.20;99.90;;;;;;5002154;28;20083;-66
2022/12/20 00:48:51;;;;;;;7.90;4.68;;;9.10;99.90;;;;;;5024294;28;20130;-66
2022/12/20 00:51:23;;;;;;;8.70;4.97;;;9.20;99.90;;;;;;5030598;28;20395;-66
2022/12/20 00:53:49;;;;;;;7.72;4.63;;;9.20;99.90;;;;;;5011376;28;20033;-66
2022/12/20 00:56:14;;;;;;;6.93;4.82;;;9.20;99.90;;;;;;5014563;28;20039;-66
2022/12/20 00:58:42;;;;;;;7.97;4.47;;;9.10;99.90;;;;;;5025468;28;20042;-66
2022/12/20 01:01:23;;;;;;;7.28;4.43;;;9.10;99.90;;;;;;5030193;28;20256;-66
2022/12/20 01:03:50;;;;;;;6.60;4.35;;;9.10;99.90;;;;;;5031122;28;20052;-66
2022/12/20 01:06:16;;;;;;;7.28;4.55;;;9.10;99.90;;;;;;5032660;28;20175;-66
2022/12/20 01:08:42;;;;;;;8.02;4.30;;;9.10;99.90;;;;;;5031653;28;20117;-66
2022/12/20 01:11:15;;;;;;;6.18;4.65;;;9.00;99.90;;;;;;5013384;28;20183;-66
2022/12/20 01:13:44;;;;;;;6.82;4.47;;;9.00;99.90;;;;;;5031000;28;20076;-66
2022/12/20 01:16:26;;;;;;;7.25;4.18;;;9.00;99.90;;;;;;5036045;23;20041;-67
2022/12/20 01:18:53;;;;;;;6.80;4.45;;;9.00;99.90;;;;;;5008480;28;20121;-67
2022/12/20 01:21:22;;;;;;;6.13;4.30;;;8.90;99.90;;;;;;5010705;28;20500;-67
2022/12/20 01:23:48;;;;;;;6.47;4.20;;;8.90;99.90;;;;;;5011732;28;20046;-67
2022/12/20 01:26:17;;;;;;;5.72;4.38;;;8.90;99.90;;;;;;5010963;28;20056;-67
2022/12/20 01:28:44;;;;;;;6.80;4.50;;;8.90;99.90;;;;;;5015532;28;20124;-67
2022/12/20 01:31:13;;;;;;;5.85;4.47;;;8.90;99.90;;;;;;5016506;28;20111;-67
2022/12/20 01:33:38;;;;;;;7.00;4.80;;;8.90;99.90;;;;;;5010205;28;20030;-67
2022/12/20 01:36:08;;;;;;;5.50;4.28;;;8.90;99.90;;;;;;5011262;28;20040;-67
2022/12/20 01:38:34;;;;;;;6.22;4.43;;;8.90;99.90;;;;;;5010822;28;20113;-67
2022/12/20 01:41:00;;;;;;;8.77;4.95;;;8.90;99.90;;;;;;5009694;28;20037;-67
2022/12/20 01:43:55;;;;;;;6.60;4.38;;;8.90;99.90;;;;;;5003343;28;20518;-67
2022/12/20 01:46:23;;;;;;;5.40;4.00;;;8.90;99.90;;;;;;5020518;28;20046;-67
2022/12/20 01:48:51;;;;;;;5.50;3.75;;;8.90;99.90;;;;;;5010459;28;20634;-67
2022/12/20 01:51:18;;;;;;;7.43;4.50;;;8.90;99.90;;;;;;5014542;28;20514;-67
2022/12/20 01:53:44;;;;;;;5.50;4.15;;;8.90;99.90;;;;;;5011763;28;20495;-67
2022/12/20 01:56:10;;;;;;;8.45;5.13;;;9.00;99.90;;;;;;5007781;28;20088;-67
2022/12/20 01:58:38;;;;;;;8.10;4.50;;;9.00;99.90;;;;;;5011521;28;20164;-67
2022/12/20 02:01:04;;;;;;;8.30;4.30;;;8.90;99.90;;;;;;5012023;28;20046;-67
2022/12/20 02:03:31;;;;;;;7.07;4.15;;;9.00;99.90;;;;;;5010811;28;20040;-67
2022/12/20 02:05:56;;;;;;;9.15;3.88;;;9.00;99.90;;;;;;5011625;28;20498;-67
2022/12/20 02:08:22;;;;;;;6.50;4.00;;;9.10;99.90;;;;;;5012385;28;20229;-67
2022/12/20 02:11:12;;;;;;;7.00;3.83;;;9.10;99.90;;;;;;5012385;28;20042;-67
2022/12/20 02:14:02;;;;;;;6.00;4.88;;;9.10;99.90;;;;;;5009514;28;20042;-67
2022/12/20 02:16:33;;;;;;;8.55;4.50;;;9.10;99.90;;;;;;5005132;28;20504;-67
2022/12/20 02:19:07;;;;;;;;;;;9.10;99.90;;;;;;5011683;28;20030;-67
2022/12/20 02:21:41;;;;;;;7.13;4.60;;;9.10;99.90;;;;;;5010210;28;20307;-67
2022/12/20 02:24:35;;;;;;;5.75;4.13;;;9.10;99.90;;;;;;5010339;28;20492;-67
2022/12/20 02:27:16;;;;;;;6.53;3.95;;;9.10;99.90;;;;;;5011771;28;20046;-67
2022/12/20 02:30:03;;;;;;;5.68;4.32;;;9.20;99.90;;;;;;5009931;28;20667;-67
2022/12/20 02:32:51;;;;;;;6.68;4.18;;;9.10;99.90;;;;;;5004581;28;20042;-67
2022/12/20 02:35:22;;;;;;;7.72;4.38;;;9.20;99.90;;;;;;4997083;28;20096;-67
2022/12/20 02:37:54;;;;;;;5.05;4.18;;;9.20;99.90;;;;;;5011707;28;20038;-67
2022/12/20 02:40:24;;;;;;;6.93;3.38;;;9.20;99.90;;;;;;5005854;28;20514;-67
2022/12/20 02:42:54;;;;;;;5.97;3.80;;;9.20;99.90;;;;;;5008668;28;20053;-67
2022/12/20 02:45:25;;;;;;;5.60;3.80;;;9.30;99.90;;;;;;5010241;28;20046;-67
2022/12/20 02:48:02;;;;;;;6.90;3.47;;;9.30;99.90;;;;;;5010026;28;20080;-67
2022/12/20 02:50:35;;;;;;;5.47;4.07;;;9.30;99.90;;;;;;5009890;28;20406;-67
2022/12/20 02:53:01;;;;;;;4.43;3.65;;;9.30;99.90;;;;;;5014105;28;20446;-67
2022/12/20 02:55:38;;;;;;;4.95;3.25;;;9.40;99.90;;;;;;5014400;28;20091;-67
2022/12/20 02:58:09;;;;;;;5.13;3.35;;;9.40;99.90;;;;;;5007592;28;20045;-67
2022/12/20 03:00:38;;;;;;;;;;;9.40;99.90;;;;;;5011683;28;20037;-67
2022/12/20 03:03:23;;;;;;;5.25;3.58;;;9.40;99.90;;;;;;5006179;28;19949;-67
2022/12/20 03:05:52;;;;;;;5.32;3.28;;;9.40;99.90;;;;;;5009782;28;20069;-67
2022/12/20 03:08:20;;;;;;;4.90;3.63;;;9.50;99.90;;;;;;4996321;28;20045;-67
2022/12/20 03:10:46;;;;;;;6.22;3.83;;;9.50;99.90;;;;;;5012017;28;20061;-67
2022/12/20 03:13:11;;;;;;;6.07;3.42;;;9.50;99.90;;;;;;5014084;28;20072;-67
2022/12/20 03:15:37;;;;;;;6.03;3.80;;;9.60;99.90;;;;;;5012210;28;20069;-67
2022/12/20 03:18:03;;;;;;;4.57;3.80;;;9.50;99.90;;;;;;5016586;28;20045;-67
2022/12/20 03:20:28;;;;;;;4.32;3.28;;;9.50;99.90;;;;;;5011639;28;20419;-67
2022/12/20 03:22:54;;;;;;;7.10;4.05;;;9.50;99.90;;;;;;5012608;28;20072;-67
2022/12/20 03:25:20;;;;;;;8.10;4.10;;;9.50;99.90;;;;;;5006251;28;20072;-67
2022/12/20 03:27:46;;;;;;;7.90;4.10;;;9.50;99.90;;;;;;5004651;28;20042;-68
2022/12/20 03:30:12;;;;;;;6.53;4.30;;;9.50;99.90;;;;;;5012406;28;20091;-68
2022/12/20 03:32:38;;;;;;;6.38;4.18;;;9.50;99.90;;;;;;5018759;28;20484;-67
2022/12/20 03:35:04;;;;;;;5.57;3.90;;;9.50;99.90;;;;;;5020007;28;20038;-67
2022/12/20 03:37:30;;;;;;;5.85;3.53;;;9.40;99.90;;;;;;5012723;28;20034;-68
2022/12/20 03:39:55;;;;;;;6.60;4.20;;;9.50;99.90;;;;;;5013011;28;20381;-67
2022/12/20 03:42:21;;;;;;;7.88;3.70;;;9.40;99.90;;;;;;5003462;28;20038;-68
2022/12/20 03:44:46;;;;;;;5.72;4.18;;;9.40;99.90;;;;;;5012927;28;20033;-68
2022/12/20 03:47:12;;;;;;;8.60;4.18;;;9.40;99.90;;;;;;5013670;28;20082;-68
2022/12/20 03:49:37;;;;;;;6.13;4.05;;;9.40;99.90;;;;;;5012703;28;20050;-68
2022/12/20 03:52:03;;;;;;;5.57;4.18;;;9.40;99.90;;;;;;5014628;28;20087;-67
2022/12/20 03:54:29;;;;;;;5.53;3.85;;;9.40;99.90;;;;;;5012674;28;20117;-68
2022/12/20 03:56:54;;;;;;;9.65;4.35;;;9.40;99.90;;;;;;5014007;28;20125;-67
2022/12/20 03:59:20;;;;;;;7.95;3.63;;;9.40;99.90;;;;;;5012373;28;20038;-67
2022/12/20 04:01:46;;;;;;;7.55;4.05;;;9.40;99.90;;;;;;5014637;28;20046;-67
2022/12/20 04:04:13;;;;;;;6.57;4.15;;;9.40;99.90;;;;;;5017933;28;20029;-67
2022/12/20 04:06:39;;;;;;;5.45;4.22;;;9.50;99.90;;;;;;5009396;28;20034;-67
2022/12/20 04:09:05;;;;;;;9.40;4.45;;;9.40;99.90;;;;;;5013766;28;20088;-67
2022/12/20 04:11:30;;;;;;;8.18;4.68;;;9.40;99.90;;;;;;5015161;28;20080;-67
2022/12/20 04:13:56;;;;;;;8.35;4.85;;;9.40;99.90;;;;;;5013126;28;20041;-67
2022/12/20 04:16:25;;;;;;;8.10;4.38;;;9.40;99.90;;;;;;5012575;28;20116;-67
2022/12/20 04:18:51;;;;;;;6.25;4.32;;;9.40;99.90;;;;;;5012995;28;20099;-67
2022/12/20 04:21:25;;;;;;;7.07;4.32;;;9.40;99.90;;;;;;5011745;28;20072;-67
2022/12/20 04:23:50;;;;;;;8.35;4.50;;;9.40;99.90;;;;;;5011060;28;20037;-67
2022/12/20 04:26:16;;;;;;;6.97;4.40;;;9.40;99.90;;;;;;5012310;28;20037;-66
2022/12/20 04:28:42;;;;;;;7.20;4.50;;;9.40;99.90;;;;;;5013279;28;20037;-67
2022/12/20 04:31:07;;;;;;;6.10;4.32;;;9.40;99.90;;;;;;5014676;28;20026;-66
2022/12/20 04:33:33;;;;;;;8.30;4.57;;;9.40;99.90;;;;;;5012220;28;20122;-67
2022/12/20 04:35:59;;;;;;;8.52;4.63;;;9.40;99.90;;;;;;5011740;28;20049;-67
2022/12/20 04:38:24;;;;;;;8.80;4.43;;;9.40;99.90;;;;;;5014713;28;20095;-67
2022/12/20 04:40:52;;;;;;;5.90;4.13;;;9.40;99.90;;;;;;5010313;28;20120;-67
2022/12/20 04:43:19;;;;;;;6.25;4.45;;;9.40;99.90;;;;;;5016095;28;20061;-67
2022/12/20 04:45:47;;;;;;;6.13;4.22;;;9.30;99.90;;;;;;5012570;28;20088;-67
2022/12/20 04:48:12;;;;;;;6.30;4.30;;;9.30;99.90;;;;;;5007080;28;20056;-67
2022/12/20 04:50:38;;;;;;;6.85;4.72;;;9.30;99.90;;;;;;5018229;28;20038;-67
2022/12/20 04:55:48;;;;;;;7.38;4.45;;;9.30;99.90;;;;;;5013733;28;20408;-67
2022/12/20 04:58:13;;;;;;;7.05;4.07;;;9.30;99.90;;;;;;5014314;28;20052;-67
2022/12/20 05:00:39;;;;;;;6.28;4.30;;;9.30;99.90;;;;;;5015296;28;20048;-67
2022/12/20 05:03:05;;;;;;;5.43;4.30;;;9.40;99.90;;;;;;5009563;28;20046;-67
2022/12/20 05:05:30;;;;;;;8.95;4.57;;;9.50;99.90;;;;;;5014396;28;20064;-67
2022/12/20 05:07:56;;;;;;;8.27;4.20;;;9.50;99.90;;;;;;5011280;28;20034;-67
2022/12/20 05:10:22;;;;;;;5.65;3.80;;;9.50;99.90;;;;;;5017036;28;20045;-67
2022/12/20 05:12:48;;;;;;;6.30;3.72;;;9.50;99.90;;;;;;5006412;28;20403;-67
2022/12/20 05:15:13;;;;;;;5.43;4.30;;;9.60;99.90;;;;;;5012163;28;20121;-67
2022/12/20 05:17:39;;;;;;;6.25;4.35;;;9.60;99.90;;;;;;5003460;28;20041;-68
2022/12/20 05:20:05;;;;;;;6.22;4.03;;;9.60;99.90;;;;;;5010940;28;20041;-68
2022/12/20 05:28:00;;;;;;;6.82;3.70;;;9.80;99.90;;;;;;5013518;28;20049;-68
2022/12/20 05:30:26;;;;;;;5.22;2.97;;;9.80;99.90;;;;;;5010243;28;20038;-67
2022/12/20 05:32:52;;;;;;;6.20;3.22;;;9.90;99.90;;;;;;5009480;28;20046;-68
2022/12/20 05:35:18;;;;;;;5.30;3.55;;;9.90;99.90;;;;;;5009609;28;20120;-68
2022/12/20 05:37:44;;;;;;;6.75;3.90;;;9.90;99.90;;;;;;4991217;28;20415;-68
2022/12/20 05:40:10;;;;;;;7.18;4.05;;;9.90;99.90;;;;;;5016335;28;20398;-69
2022/12/20 05:42:36;;;;;;;5.65;3.67;;;9.90;99.90;;;;;;5007103;28;20454;-69
2022/12/20 05:45:03;;;;;;;5.95;3.13;;;9.90;99.90;;;;;;5004072;28;20034;-69
2022/12/20 05:47:32;;;;;;;7.10;4.10;;;9.90;99.90;;;;;;5010828;28;20848;-69
2022/12/20 05:49:59;;;;;;;4.75;3.38;;;10.00;99.90;;;;;;5010100;28;20038;-69
2022/12/20 05:52:25;;;;;;;5.75;3.75;;;10.00;99.90;;;;;;5021004;28;20541;-67
2022/12/20 05:54:50;;;;;;;6.97;3.83;;;10.00;99.90;;;;;;5013605;28;20037;-66
2022/12/20 05:57:16;;;;;;;5.35;3.92;;;10.00;99.90;;;;;;5017657;28;20037;-67
2022/12/20 05:59:42;;;;;;;6.93;3.80;;;10.10;99.90;;;;;;5010757;28;20038;-67
2022/12/20 06:02:09;;;;;;;8.65;3.75;;;10.10;99.90;;;;;;5010826;28;20150;-67
2022/12/20 06:04:35;;;;;;;6.65;3.30;;;10.10;99.90;;;;;;5010447;28;20046;-67
2022/12/20 06:07:01;;;;;;;9.05;3.60;;;10.00;99.90;;;;;;5011844;28;20053;-67
2022/12/20 06:09:26;;;;;;;5.88;3.67;;;10.10;99.90;;;;;;5014656;28;20030;-67
2022/12/20 06:11:52;;;;;;;7.15;4.18;;;10.10;99.90;;;;;;5014689;28;20038;-67
2022/12/20 06:14:18;;;;;;;5.60;3.55;;;10.00;99.90;;;;;;5012006;28;20475;-67
2022/12/20 06:16:43;;;;;;;6.30;3.40;;;10.00;99.90;;;;;;4998881;28;20042;-67
2022/12/20 06:19:09;;;;;;;5.90;3.63;;;10.10;99.90;;;;;;4990115;28;20031;-67
2022/12/20 06:21:34;;;;;;;8.13;3.90;;;10.00;99.90;;;;;;4984774;28;20038;-67
2022/12/20 06:24:00;;;;;;;6.05;4.10;;;10.10;99.90;;;;;;4990094;28;20145;-67
2022/12/20 06:26:26;;;;;;;4.93;3.55;;;10.10;99.90;;;;;;4994269;28;20042;-67
2022/12/20 06:28:53;;;;;;;7.85;3.95;;;10.20;99.90;;;;;;4993472;28;20050;-67
2022/12/20 06:31:19;;;;;;;4.95;3.72;;;10.20;99.90;;;;;;5010810;28;20484;-67
2022/12/20 06:33:45;;;;;;;8.27;3.45;;;10.20;99.90;;;;;;4991701;28;20042;-67
2022/12/20 06:36:10;;;;;;;6.82;4.45;;;10.20;99.90;;;;;;4992078;28;20042;-67
2022/12/20 06:38:36;;;;;;;6.80;4.28;;;10.20;99.90;;;;;;4994480;28;20048;-67
2022/12/20 06:41:02;;;;;;;6.57;4.10;;;10.20;99.90;;;;;;4998036;28;20038;-67
2022/12/20 06:43:27;;;;;;;5.88;3.85;;;10.10;99.90;;;;;;4995647;28;20459;-67
2022/12/20 06:45:53;;;;;;;6.20;4.20;;;10.10;99.90;;;;;;4995558;28;20445;-67
2022/12/20 06:48:22;;;;;;;7.53;4.03;;;10.10;99.90;;;;;;4993877;28;20038;-67
2022/12/20 06:50:48;;;;;;;6.20;3.88;;;10.00;99.90;;;;;;4994344;28;20504;-66
2022/12/20 06:53:14;;;;;;;8.35;4.18;;;10.00;99.90;;;;;;4995576;28;20081;-67
2022/12/20 06:55:40;;;;;;;8.27;3.95;;;10.00;99.90;;;;;;4995847;28;20046;-67
2022/12/20 06:58:05;;;;;;;6.53;4.22;;;10.00;99.90;;;;;;4994276;28;20037;-67
2022/12/20 07:00:31;;;;;;;7.13;4.53;;;10.00;99.90;;;;;;4991147;28;20065;-67
2022/12/20 07:02:57;;;;;;;6.78;4.38;;;10.00;99.90;;;;;;4990859;28;20038;-67
2022/12/20 07:05:23;;;;;;;6.90;4.82;;;9.90;99.90;;;;;;4994227;28;20038;-68
2022/12/20 07:07:49;;;;;;;10.90;5.18;;;9.90;99.90;;;;;;4992789;28;20065;-69
2022/12/20 07:10:15;;;;;;;8.43;4.75;;;9.90;99.90;;;;;;4993545;28;20069;-68
2022/12/20 07:12:40;;;;;;;5.63;4.55;;;9.90;99.90;;;;;;4987486;28;20042;-68
2022/12/20 07:15:07;;;;;;;8.05;4.97;;;9.90;99.90;;;;;;4993722;28;20037;-69
2022/12/20 07:17:33;;;;;;;7.75;4.90;;;9.90;99.90;;;;;;5045164;22;20041;-62
2022/12/20 07:19:59;;;;;;;7.13;4.90;;;9.90;99.90;;;;;;5056237;28;20471;-62
2022/12/20 07:22:24;;;;;;;8.70;5.18;;;9.80;99.90;;;;;;5051920;28;20132;-62
2022/12/20 07:24:50;;;;;;;7.68;5.15;;;9.80;99.90;;;;;;5057534;28;20040;-63
2022/12/20 07:27:16;;;;;;;9.48;5.25;;;9.90;99.90;;;;;;5050631;28;20461;-63
2022/12/20 07:29:42;;;;;;;8.60;5.53;;;9.80;99.90;;;;;;5027569;28;20538;-63
2022/12/20 07:32:07;;;;;;;10.75;6.53;;;9.90;99.90;;;;;;5045820;28;20144;-63
2022/12/20 07:34:35;;;;;;;6.90;4.97;;;9.80;99.90;;;;;;5031894;28;20057;-63
2022/12/20 07:37:00;;;;;;;6.70;4.95;;;9.80;99.90;;;;;;5047459;28;20060;-62
2022/12/20 07:39:26;;;;;;;8.85;5.43;;;9.80;99.90;;;;;;5051351;28;20494;-62
2022/12/20 07:41:55;;;;;;;7.70;5.10;;;9.80;99.90;;;;;;5045684;28;20037;-62
2022/12/20 07:44:21;;;;;;;8.85;5.25;;;9.90;99.90;;;;;;5048858;28;20517;-63
2022/12/20 07:46:47;;;;;;;8.07;4.63;;;9.90;99.90;;;;;;5047094;28;20047;-62
2022/12/20 07:49:14;;;;;;;9.80;5.32;;;9.90;99.90;;;;;;5027276;28;20132;-62
2022/12/20 07:51:53;;;;;;;8.82;4.88;;;9.80;99.90;;;;;;5024194;28;20164;-62
2022/12/20 07:54:22;;;;;;;8.00;4.75;;;9.80;99.90;;;;;;5045547;28;20041;-62
2022/12/20 07:56:51;;;;;;;7.93;4.93;;;9.80;99.90;;;;;;5051940;28;20583;-62
2022/12/20 07:59:22;;;;;;;10.00;5.03;;;9.80;99.90;;;;;;5052659;28;20045;-62
2022/12/20 08:01:48;;;;;;;8.82;4.47;;;9.90;99.90;;;;;;5049695;28;20032;-62
2022/12/20 08:04:19;;;;;;;8.10;5.03;;;9.90;99.90;;;;;;5057387;28;20490;-63
2022/12/20 08:06:46;;;;;;;6.68;4.60;;;9.90;99.90;;;;;;5052134;28;20064;-62
2022/12/20 08:09:13;;;;;;;6.80;4.95;;;9.90;99.90;;;;;;5032813;28;20064;-62
2022/12/20 08:11:42;;;;;;;6.97;4.07;;;9.90;99.90;;;;;;5052169;28;20033;-62
2022/12/20 08:14:08;;;;;;;8.27;4.80;;;9.90;99.90;;;;;;5051172;28;20043;-62
2022/12/20 08:16:34;;;;;;;7.60;4.88;;;9.90;99.90;;;;;;5059838;28;20080;-62
2022/12/20 08:19:00;;;;;;;7.57;4.35;;;10.00;99.90;;;;;;5053380;28;20556;-62
2022/12/20 08:21:25;;;;;;;7.03;4.45;;;10.00;99.90;;;;;;5052878;28;20045;-62
2022/12/20 08:23:51;;;;;;;6.13;3.47;;;10.00;99.90;;;;;;5047653;28;20040;-62
2022/12/20 08:26:17;;;;;;;7.43;4.40;;;10.00;99.90;;;;;;5048019;28;20040;-62
2022/12/20 08:28:43;;;;;;;7.70;4.35;;;10.10;99.90;;;;;;5048876;28;20040;-63
2022/12/20 08:31:09;;;;;;;5.65;4.05;;;10.10;99.90;;;;;;5050850;28;20029;-62
2022/12/20 08:33:36;;;;;;;7.53;4.60;;;10.10;99.90;;;;;;5049097;28;20116;-62
2022/12/20 08:36:05;;;;;;;5.45;3.88;;;10.10;99.90;;;;;;5049218;28;20037;-61
2022/12/20 08:38:31;;;;;;;6.55;3.90;;;10.10;99.90;;;;;;5049612;28;20073;-62
2022/12/20 08:41:11;;;;;;;7.55;4.10;;;10.10;99.90;;;;;;5051180;28;20040;-62
2022/12/20 08:43:38;;;;;;;5.97;3.72;;;10.10;99.90;;;;;;5048166;28;20041;-62
2022/12/20 08:46:05;;;;;;;6.93;4.07;;;10.10;99.90;;;;;;5048064;28;20394;-62
2022/12/20 08:48:32;;;;;;;6.00;4.50;;;10.10;99.90;;;;;;5013718;28;20091;-62
2022/12/20 08:51:00;;;;;;;7.90;4.43;;;10.10;99.90;;;;;;5051061;28;20036;-62
2022/12/20 08:53:28;;;;;;;6.22;4.22;;;10.00;99.90;;;;;;5050973;28;20033;-62
2022/12/20 08:56:01;;;;;;;5.72;3.47;;;10.10;99.90;;;;;;5045454;28;20072;-62
2022/12/20 08:58:27;;;;;;;7.13;4.00;;;10.10;99.90;;;;;;5048115;28;20036;-62
2022/12/20 09:00:52;;;;;;;9.48;4.30;;;10.10;99.90;;;;;;5049499;28;20033;-62
2022/12/20 09:03:18;;;;;;;7.47;3.53;;;10.10;99.90;;;;;;5050941;28;20048;-62
2022/12/20 09:05:46;;;;;;;8.27;4.10;;;10.20;99.90;;;;;;5051070;28;20424;-62
2022/12/20 09:08:14;;;;;;;7.30;3.97;;;10.20;99.90;;;;;;5052044;28;20037;-62
2022/12/20 09:10:40;;;;;;;6.40;3.95;;;10.10;99.90;;;;;;5046439;28;20043;-62
2022/12/20 09:13:05;;;;;;;8.40;3.97;;;10.20;99.90;;;;;;5049285;28;20029;-62
2022/12/20 09:15:34;;;;;;;6.47;4.00;;;10.20;99.90;;;;;;5052245;28;20025;-61
2022/12/20 09:17:59;;;;;;;7.53;4.30;;;10.20;99.90;;;;;;5054886;28;20168;-62
2022/12/20 09:20:25;;;;;;;5.35;3.85;;;10.20;99.90;;;;;;5048386;28;20128;-62
2022/12/20 09:22:50;;;;;;;5.97;4.03;;;10.20;99.90;;;;;;5050741;28;20406;-62
2022/12/20 09:25:16;;;;;;;5.15;4.53;;;10.20;99.90;;;;;;5031910;28;20041;-61
2022/12/20 09:27:41;;;;;;;6.88;4.65;;;10.30;99.90;;;;;;5032761;28;20086;-62
2022/12/20 09:30:08;;;;;;;6.45;4.60;;;10.30;99.90;;;;;;5049863;28;20047;-60
2022/12/20 09:32:33;;;;;;;7.82;4.35;;;10.20;99.90;;;;;;5028857;28;20071;-62
2022/12/20 09:34:59;;;;;;;7.82;4.35;;;10.20;99.90;;;;;;5045741;28;20060;-62
2022/12/20 09:37:24;;;;;;;5.25;3.88;;;10.20;99.90;;;;;;5028622;28;20063;-62
2022/12/20 09:39:50;;;;;;;6.65;3.67;;;10.20;99.90;;;;;;5044470;28;20037;-62
2022/12/20 09:42:21;;;;;;;5.13;3.88;;;10.20;99.90;;;;;;5052270;28;20039;-62
2022/12/20 09:44:47;;;;;;;7.32;4.13;;;10.20;99.90;;;;;;5050963;28;20066;-63
2022/12/20 09:47:23;;;;;;;5.80;3.42;;;10.20;99.90;;;;;;5050140;28;20437;-63
2022/12/20 09:49:52;;;;;;;6.47;4.22;;;10.20;99.90;;;;;;5047584;28;20127;-63
2022/12/20 09:52:36;;;;;;;6.85;3.85;;;10.20;99.90;;;;;;5045876;28;20036;-63
2022/12/20 09:55:25;;;;;;;7.93;5.53;;;10.30;99.90;;;;;;5042396;28;20041;-63
2022/12/20 09:58:17;;;;;;;7.32;3.95;;;10.20;99.90;;;;;;5047762;28;20379;-63
2022/12/20 10:00:46;;;;;;;7.55;4.78;;;10.20;99.90;;;;;;5043658;28;20076;-63
2022/12/20 10:03:30;;;;;;;8.13;4.25;;;10.20;99.90;;;;;;5041110;28;20441;-63
2022/12/20 10:06:07;;;;;;;5.78;4.68;;;10.10;99.90;;;;;;5023693;28;20179;-63
2022/12/20 10:08:42;;;;;;;7.68;3.67;;;10.10;99.90;;;;;;5047256;28;20056;-63
2022/12/20 10:11:34;;;;;;;6.65;4.45;;;10.10;99.90;;;;;;5042535;28;20041;-63
2022/12/20 10:14:06;;;;;;;9.30;4.57;;;10.10;99.90;;;;;;5033489;28;20540;-63
2022/12/20 10:16:43;;;;;;;7.13;3.95;;;10.00;99.90;;;;;;5030913;28;20044;-63
2022/12/20 10:19:43;;;;;;;8.00;4.13;;;10.00;99.90;;;;;;5033013;28;20112;-63
2022/12/20 10:22:32;;;;;;;8.20;4.13;;;10.00;99.90;;;;;;5051060;28;20116;-63
2022/12/20 10:25:11;;;;;;;5.20;3.17;;;10.10;99.90;;;;;;5050399;28;20508;-64
2022/12/20 10:27:41;;;;;;;9.88;5.10;;;10.00;99.90;;;;;;5051084;28;20040;-63
2022/12/20 10:30:17;;;;;;;7.15;4.20;;;10.00;99.90;;;;;;5031601;28;20038;-64
2022/12/20 10:32:47;;;;;;;7.68;4.38;;;10.00;99.90;;;;;;5045727;28;20041;-64
2022/12/20 10:35:13;;;;;;;7.20;4.60;;;10.00;99.90;;;;;;5050734;28;20055;-63
2022/12/20 10:37:55;;;;;;;7.53;3.65;;;10.00;99.90;;;;;;5032156;28;20056;-63
2022/12/20 10:40:37;;;;;;;5.85;3.08;;;10.00;99.90;;;;;;5030762;28;20041;-64
2022/12/20 10:43:05;;;;;;;5.28;3.58;;;10.00;99.90;;;;;;5046281;28;20037;-63
2022/12/20 10:45:40;;;;;;;7.25;4.10;;;10.00;99.90;;;;;;5023755;28;20179;-64
2022/12/20 10:48:33;;;;;;;9.15;3.85;;;10.00;99.90;;;;;;5043066;28;20487;-64
2022/12/20 10:51:20;;;;;;;9.32;4.18;;;10.00;99.90;;;;;;5051015;28;20033;-64
2022/12/20 10:53:56;;;;;;;4.93;3.63;;;10.00;99.90;;;;;;5033120;28;20041;-64
2022/12/20 10:56:26;;;;;;;4.90;3.80;;;10.00;99.90;;;;;;5032785;28;20033;-63
2022/12/20 10:58:54;;;;;;;7.67;4.20;;;10.00;99.90;;;;;;5051101;28;20487;-63
2022/12/20 11:01:24;;;;;;;7.15;4.20;;;10.00;99.90;;;;;;5047710;28;20095;-63
2022/12/20 11:04:04;;;;;;;7.20;4.43;;;10.00;99.90;;;;;;5050313;28;20087;-63
2022/12/20 11:06:44;;;;;;;6.25;4.47;;;10.00;99.90;;;;;;5050092;28;20040;-63
2022/12/20 11:09:18;;;;;;;6.80;3.90;;;10.00;99.90;;;;;;5035528;28;20040;-63
2022/12/20 11:12:13;;;;;;;7.60;3.92;;;10.10;99.90;;;;;;5044858;28;20090;-62
2022/12/20 11:14:41;;;;;;;8.10;3.30;;;10.10;99.90;;;;;;5047123;28;20444;-62
2022/12/20 11:17:35;;;;;;;9.75;4.20;;;10.10;99.90;;;;;;5048956;28;20594;-63
2022/12/20 11:20:04;;;;;;;7.03;3.88;;;10.20;99.90;;;;;;5052676;28;20055;-63
2022/12/20 11:22:46;;;;;;;6.95;4.03;;;10.20;99.90;;;;;;5052123;28;20398;-63
2022/12/20 11:25:35;;;;;;;5.72;3.30;;;10.20;99.90;;;;;;5050812;28;20045;-63
2022/12/20 11:28:23;;;;;;;7.47;3.90;;;10.20;99.90;;;;;;5053226;28;20037;-63
2022/12/20 11:30:57;;;;;;;7.20;4.15;;;10.20;99.90;;;;;;5033463;28;20104;-63
2022/12/20 11:34:02;;;;;;;7.82;3.90;;;10.20;99.90;;;;;;5049613;28;20394;-63
2022/12/20 11:36:46;;;;;;;5.95;4.00;;;10.20;99.90;;;;;;5047926;28;20087;-63
2022/12/20 11:39:39;;;;;;;6.22;3.92;;;10.20;99.90;;;;;;5046033;28;20044;-63
2022/12/20 11:42:17;;;;;;;8.00;4.45;;;10.20;99.90;;;;;;5052357;28;20036;-63
2022/12/20 11:44:51;;;;;;;5.60;4.03;;;10.30;99.90;;;;;;5049540;28;20466;-63
2022/12/20 11:47:49;;;;;;;8.48;3.60;;;10.20;99.90;;;;;;5052115;28;20068;-63
2022/12/20 11:50:25;;;;;;;6.20;3.38;;;10.30;99.90;;;;;;4994063;28;20080;-63
2022/12/20 11:52:57;;;;;;;6.97;3.97;;;10.20;99.90;;;;;;5033550;28;20055;-63
2022/12/20 11:55:40;;;;;;;6.07;4.05;;;10.20;99.90;;;;;;5051757;28;20033;-63
2022/12/20 11:58:15;;;;;;;7.28;4.53;;;10.20;99.90;;;;;;5051304;28;20043;-63
2022/12/20 12:00:47;;;;;;;6.32;4.10;;;10.20;99.90;;;;;;5053665;28;20068;-63
2022/12/20 12:03:37;;;;;;;8.13;4.00;;;10.20;99.90;;;;;;5035603;28;20056;-63
2022/12/20 12:06:28;;;;;;;7.97;4.28;;;10.10;99.90;;;;;;5050371;28;20032;-63
2022/12/20 12:09:37;;;;;;;6.03;3.72;;;10.20;99.90;;;;;;5033169;28;20045;-63
2022/12/20 12:12:09;;;;;;;7.68;4.15;;;10.10;99.90;;;;;;4952320;28;21070;-63
2022/12/20 12:14:41;;;;;;;;;;;10.10;99.90;;;;;;4960975;28;20039;-63
2022/12/20 12:17:16;;;;;;;5.25;3.75;;;10.10;99.90;;;;;;4995311;28;19917;-63
2022/12/20 12:19:45;;;;;;;6.97;4.28;;;10.10;99.90;;;;;;5052682;28;20080;-62
2022/12/20 12:22:20;;;;;;;6.78;4.32;;;10.20;99.90;;;;;;5031145;28;20568;-63
2022/12/20 12:24:51;;;;;;;6.85;4.55;;;10.10;99.90;;;;;;5050239;28;20036;-63
2022/12/20 12:27:26;;;;;;;9.90;4.68;;;10.10;99.90;;;;;;5050797;28;20494;-63
2022/12/20 12:29:55;;;;;;;7.55;4.55;;;10.10;99.90;;;;;;5032587;28;20112;-63
2022/12/20 12:32:37;;;;;;;7.10;4.03;;;10.10;99.90;;;;;;5052150;28;20045;-63
2022/12/20 12:35:34;;;;;;;6.32;4.53;;;10.10;99.90;;;;;;5050056;28;20086;-63
2022/12/20 12:38:08;;;;;;;7.18;4.28;;;10.20;99.90;;;;;;5050630;28;20083;-63
2022/12/20 12:40:51;;;;;;;7.72;4.35;;;10.10;99.90;;;;;;5051484;28;20032;-63
2022/12/20 12:43:28;;;;;;;7.15;4.60;;;10.10;99.90;;;;;;5045936;28;20542;-63
2022/12/20 12:45:59;;;;;;;9.38;5.18;;;10.10;99.90;;;;;;5048698;28;20037;-63
2022/12/20 12:48:47;;;;;;;8.02;5.05;;;10.20;99.90;;;;;;5049635;28;20047;-63
2022/12/20 12:51:14;;;;;;;6.78;4.68;;;10.10;99.90;;;;;;5048367;28;20049;-63
2022/12/20 12:53:52;;;;;;;5.35;4.28;;;10.20;99.90;;;;;;5016293;28;20050;-63
2022/12/20 12:56:26;;;;;;;6.28;4.68;;;10.20;99.90;;;;;;5049807;28;20116;-63
2022/12/20 12:59:11;;;;;;;6.93;4.68;;;10.20;99.90;;;;;;5049166;28;20043;-62
2022/12/20 13:01:55;;;;;;;8.57;4.90;;;10.10;99.90;;;;;;5032243;28;20297;-63
2022/12/20 13:04:27;;;;;;;8.65;5.00;;;10.20;99.90;;;;;;5044655;28;20542;-63
2022/12/20 13:06:58;;;;;;;10.38;5.30;;;10.10;99.90;;;;;;5046691;28;20099;-63
2022/12/20 13:09:26;;;;;;;7.75;4.82;;;10.20;99.90;;;;;;5050101;28;20040;-64
2022/12/20 13:11:54;;;;;;;9.23;5.05;;;10.20;99.90;;;;;;5050015;28;20033;-63
2022/12/20 13:14:26;;;;;;;9.15;5.68;;;10.20;99.90;;;;;;5046185;28;20116;-63
2022/12/20 13:17:04;;;;;;;7.80;5.28;;;10.10;99.90;;;;;;5052640;22;20653;-69